Time;durP1;ratioP1;P1;durP2;ratioP2;P2;SDS_P1;SDS_P2;PMS_P1;PMS_P2;Temp;Humidity;BMP_temperature;BMP_pressure;BME280_temperature;BME280_humidity;BME280_pressure;Samples;Min_cycle;Max_cycle;Signal;HPM_P1;HPM_P2
2022/04/21 00:02:04;;;;;;;2.20;1.30;;;22.60;39.30;;;;;;4990232;28;20487;-43
2022/04/21 00:04:30;;;;;;;2.60;1.40;;;22.60;39.40;;;;;;5008225;28;20386;-43
2022/04/21 00:06:56;;;;;;;3.28;1.65;;;22.60;39.40;;;;;;5007759;28;20457;-45
2022/04/21 00:09:22;;;;;;;3.22;1.70;;;22.60;39.30;;;;;;5007797;28;20229;-42
2022/04/21 00:11:48;;;;;;;2.67;1.33;;;22.60;39.30;;;;;;5007187;28;20029;-43
2022/04/21 00:14:13;;;;;;;3.15;1.55;;;22.60;39.40;;;;;;4989546;28;20041;-44
2022/04/21 00:16:39;;;;;;;3.22;1.80;;;22.60;39.40;;;;;;5007193;28;20088;-44
2022/04/21 00:19:05;;;;;;;2.70;1.55;;;22.60;39.30;;;;;;5007460;28;20130;-44
2022/04/21 00:23:26;;;;;;;2.25;1.35;;;22.60;39.40;;;;;;5007020;28;20100;-44
2022/04/21 00:24:16;;;;;;;2.42;1.45;;;22.60;39.40;;;;;;5007127;28;20099;-44
2022/04/21 00:26:42;;;;;;;2.80;1.50;;;22.50;39.50;;;;;;5007199;28;20034;-43
2022/04/21 00:29:07;;;;;;;2.95;1.60;;;22.50;39.40;;;;;;5006917;28;20626;-45
2022/04/21 00:31:33;;;;;;;3.42;1.75;;;22.50;39.30;;;;;;5006318;28;20033;-44
2022/04/21 00:33:58;;;;;;;3.45;1.70;;;22.50;39.30;;;;;;5006516;28;20160;-45
2022/04/21 00:36:24;;;;;;;3.47;1.60;;;22.50;39.40;;;;;;5006971;28;20029;-44
2022/04/21 00:38:50;;;;;;;2.90;1.35;;;22.50;39.30;;;;;;5007551;28;20026;-43
2022/04/21 00:41:15;;;;;;;2.45;1.30;;;22.50;39.30;;;;;;4989104;28;20034;-44
2022/04/21 00:43:41;;;;;;;2.92;1.55;;;22.50;39.30;;;;;;5006230;28;20595;-44
2022/04/21 00:46:15;;;;;;;3.38;1.55;;;22.50;39.30;;;;;;5006545;28;20037;-45
2022/04/21 00:48:41;;;;;;;3.42;1.70;;;22.50;39.30;;;;;;5006592;28;20065;-44
2022/04/21 00:51:07;;;;;;;2.42;1.35;;;22.50;39.20;;;;;;4988819;28;20034;-43
2022/04/21 00:53:32;;;;;;;2.85;1.80;;;22.50;39.30;;;;;;5006745;28;20102;-45
2022/04/21 00:55:59;;;;;;;2.70;1.50;;;22.50;39.20;;;;;;4999423;28;20459;-44
2022/04/21 00:58:26;;;;;;;2.75;1.42;;;22.40;39.20;;;;;;4986847;28;20655;-44
2022/04/21 01:00:53;;;;;;;3.35;1.75;;;22.40;39.20;;;;;;4986699;28;20089;-44
2022/04/21 01:03:19;;;;;;;2.75;1.55;;;22.40;39.30;;;;;;4998145;28;20073;-44
2022/04/21 01:05:47;;;;;;;2.78;1.60;;;22.40;39.30;;;;;;5006310;28;20030;-44
2022/04/21 01:08:13;;;;;;;2.80;1.52;;;22.40;39.30;;;;;;5006694;28;20371;-44
2022/04/21 01:10:42;;;;;;;2.75;1.45;;;22.40;39.20;;;;;;5005643;28;20490;-43
2022/04/21 01:13:10;;;;;;;2.88;1.58;;;22.40;39.30;;;;;;4988807;28;20510;-45
2022/04/21 01:15:38;;;;;;;3.35;1.98;;;22.40;39.30;;;;;;5006527;28;20041;-45
2022/04/21 01:18:05;;;;;;;2.28;1.23;;;22.40;39.10;;;;;;5005966;28;20036;-45
2022/04/21 01:20:31;;;;;;;3.30;1.50;;;22.40;39.10;;;;;;5006082;28;20029;-43
2022/04/21 01:22:57;;;;;;;2.30;1.15;;;22.40;39.10;;;;;;4988749;28;20029;-44
2022/04/21 01:25:23;;;;;;;2.85;1.60;;;22.40;39.10;;;;;;5005662;28;20502;-44
2022/04/21 01:27:56;;;;;;;2.22;1.30;;;22.40;39.20;;;;;;5006394;28;20026;-44
2022/04/21 01:30:21;;;;;;;2.95;1.60;;;22.40;39.10;;;;;;5006132;28;20034;-44
2022/04/21 01:32:49;;;;;;;2.50;1.42;;;22.40;39.20;;;;;;5005841;28;20096;-45
2022/04/21 01:35:15;;;;;;;2.70;1.67;;;22.40;39.10;;;;;;5006148;28;20056;-44
2022/04/21 01:43:11;;;;;;;3.03;1.58;;;22.40;39.70;;;;;;5006402;28;20420;-45
2022/04/21 01:45:37;;;;;;;3.15;1.33;;;22.40;39.20;;;;;;5005730;28;20017;-45
2022/04/21 01:48:03;;;;;;;2.08;1.30;;;22.40;39.20;;;;;;5005387;28;20303;-45
2022/04/21 01:50:30;;;;;;;2.83;1.63;;;22.30;39.10;;;;;;5005742;28;20037;-44
2022/04/21 01:52:58;;;;;;;2.72;1.55;;;22.30;39.20;;;;;;5006083;28;20038;-44
2022/04/21 01:55:25;;;;;;;2.40;1.27;;;22.30;39.20;;;;;;5005793;28;20347;-44
2022/04/21 01:57:50;;;;;;;2.90;1.45;;;22.30;39.20;;;;;;5000416;28;20088;-43
2022/04/21 02:00:16;;;;;;;2.75;1.42;;;22.30;39.20;;;;;;5005070;28;20668;-45
2022/04/21 02:02:42;;;;;;;2.70;1.40;;;22.30;39.10;;;;;;4987368;28;20026;-42
2022/04/21 02:05:08;;;;;;;2.75;1.48;;;22.30;39.00;;;;;;5005408;28;20049;-44
2022/04/21 02:07:36;;;;;;;2.85;1.35;;;22.30;39.00;;;;;;5005469;28;20056;-43
2022/04/21 02:10:02;;;;;;;2.25;1.40;;;22.30;38.90;;;;;;5005742;28;20160;-44
2022/04/21 02:12:28;;;;;;;2.85;1.50;;;22.30;39.00;;;;;;5004902;28;20109;-44
2022/04/21 02:14:54;;;;;;;2.60;1.30;;;22.30;39.00;;;;;;4988103;28;20033;-44
2022/04/21 02:17:20;;;;;;;2.90;1.65;;;22.30;39.00;;;;;;5004492;28;20028;-45
2022/04/21 02:19:46;;;;;;;2.75;1.52;;;22.30;38.90;;;;;;5004971;28;20029;-44
2022/04/21 02:22:12;;;;;;;2.72;1.42;;;22.20;38.80;;;;;;5005081;28;20026;-44
2022/04/21 02:24:38;;;;;;;2.50;1.40;;;22.30;38.90;;;;;;4987364;28;20030;-43
2022/04/21 02:27:04;;;;;;;2.35;1.25;;;22.30;38.90;;;;;;5005488;28;20026;-44
2022/04/21 02:29:30;;;;;;;2.88;1.50;;;22.30;38.90;;;;;;5005242;28;20026;-45
2022/04/21 02:31:55;;;;;;;2.90;1.60;;;22.20;38.90;;;;;;5004599;28;20068;-44
2022/04/21 02:34:21;;;;;;;2.17;1.27;;;22.20;39.00;;;;;;5004747;28;20240;-44
2022/04/21 02:36:47;;;;;;;2.25;1.38;;;22.20;38.90;;;;;;5004529;28;20022;-44
2022/04/21 02:39:13;;;;;;;2.28;1.40;;;22.20;38.90;;;;;;5005466;28;20030;-43
2022/04/21 02:41:38;;;;;;;3.45;1.90;;;22.20;38.90;;;;;;5004791;28;20034;-44
2022/04/21 02:44:04;;;;;;;3.83;1.50;;;22.20;38.90;;;;;;5005101;28;20097;-43
2022/04/21 02:46:32;;;;;;;3.25;1.90;;;22.20;38.90;;;;;;5004850;28;20504;-44
2022/04/21 02:49:00;;;;;;;2.65;1.35;;;22.20;38.70;;;;;;5004659;28;20037;-44
2022/04/21 02:51:27;;;;;;;2.47;1.48;;;22.20;38.60;;;;;;5004593;28;20509;-44
2022/04/21 02:59:23;;;;;;;2.80;1.70;;;22.20;38.70;;;;;;4985148;28;20389;-45
2022/04/21 03:01:48;;;;;;;2.85;1.65;;;22.20;38.70;;;;;;4984884;28;20105;-43
2022/04/21 03:04:14;;;;;;;3.17;1.67;;;22.20;38.80;;;;;;5002183;28;20076;-43
2022/04/21 03:06:40;;;;;;;3.10;1.77;;;22.20;38.70;;;;;;5004200;28;20033;-44
2022/04/21 03:09:06;;;;;;;3.17;1.70;;;22.20;38.80;;;;;;5005191;28;20644;-44
2022/04/21 03:11:31;;;;;;;2.45;1.40;;;22.20;38.70;;;;;;5004329;28;20053;-45
2022/04/21 03:13:57;;;;;;;2.42;1.65;;;22.20;38.80;;;;;;5005046;28;20041;-45
2022/04/21 03:16:23;;;;;;;3.50;1.42;;;22.20;38.80;;;;;;5004968;28;20070;-45
2022/04/21 03:18:48;;;;;;;3.33;2.03;;;22.10;38.80;;;;;;5004782;28;20069;-45
2022/04/21 03:26:43;;;;;;;2.70;1.50;;;22.10;38.80;;;;;;5005108;28;20022;-44
2022/04/21 03:29:08;;;;;;;2.90;1.70;;;22.20;38.80;;;;;;5004792;28;20481;-43
2022/04/21 03:31:35;;;;;;;3.00;1.60;;;22.10;38.80;;;;;;4994591;28;20071;-43
2022/04/21 03:34:02;;;;;;;2.75;1.63;;;22.10;38.60;;;;;;4999465;28;20030;-43
2022/04/21 03:36:28;;;;;;;2.42;1.50;;;22.10;38.60;;;;;;5004519;28;20026;-45
2022/04/21 03:38:53;;;;;;;2.70;1.50;;;22.10;38.70;;;;;;5004165;28;20301;-43
2022/04/21 03:41:19;;;;;;;2.10;1.30;;;22.10;38.70;;;;;;5003905;28;20030;-44
2022/04/21 03:43:45;;;;;;;2.53;1.65;;;22.10;38.70;;;;;;5004485;28;20033;-44
2022/04/21 03:46:11;;;;;;;2.40;1.27;;;22.10;38.70;;;;;;5004574;28;20029;-44
2022/04/21 03:48:36;;;;;;;2.97;1.70;;;22.10;38.60;;;;;;5005222;28;20541;-43
2022/04/21 03:51:02;;;;;;;2.67;1.60;;;22.10;38.60;;;;;;5007550;28;20041;-45
2022/04/21 03:53:28;;;;;;;3.10;1.63;;;22.10;38.60;;;;;;5008069;28;20089;-43
2022/04/21 03:55:53;;;;;;;2.65;1.60;;;22.10;38.60;;;;;;5008254;28;20032;-43
2022/04/21 03:58:19;;;;;;;2.72;1.73;;;22.10;38.60;;;;;;5000062;28;20035;-44
2022/04/21 04:00:45;;;;;;;2.88;1.50;;;22.10;38.70;;;;;;4987621;28;20050;-43
2022/04/21 04:03:10;;;;;;;2.47;1.60;;;22.10;38.70;;;;;;4995915;28;20076;-44
2022/04/21 04:05:36;;;;;;;3.28;1.70;;;22.10;38.70;;;;;;5007354;28;20057;-44
2022/04/21 04:10:52;;;;;;;2.78;1.63;;;22.10;38.70;;;;;;5007480;28;20033;-44
2022/04/21 04:13:22;;;;;;;2.35;1.40;;;22.10;38.80;;;;;;5007208;28;20041;-43
2022/04/21 04:15:49;;;;;;;3.20;1.67;;;22.10;38.70;;;;;;5007924;28;20037;-43
2022/04/21 04:18:24;;;;;;;2.90;1.65;;;22.10;38.80;;;;;;5007156;28;20042;-44
2022/04/21 04:20:50;;;;;;;2.63;1.55;;;22.10;38.80;;;;;;5007310;28;20029;-44
2022/04/21 04:23:16;;;;;;;3.05;1.48;;;22.10;38.80;;;;;;5007486;28;20026;-44
2022/04/21 04:25:42;;;;;;;3.13;1.70;;;22.10;38.90;;;;;;5007366;28;20551;-43
2022/04/21 04:28:08;;;;;;;3.35;1.88;;;22.10;39.00;;;;;;5007149;28;20037;-44
2022/04/21 04:30:33;;;;;;;3.22;1.83;;;22.20;39.00;;;;;;5006667;28;20037;-43
2022/04/21 04:32:59;;;;;;;2.83;1.60;;;22.10;39.00;;;;;;5004144;28;20037;-44
2022/04/21 04:35:26;;;;;;;2.67;1.45;;;22.20;39.00;;;;;;5006166;28;20022;-44
2022/04/21 04:37:54;;;;;;;3.00;1.70;;;22.30;39.00;;;;;;5006264;28;20084;-45
2022/04/21 04:40:21;;;;;;;2.58;1.42;;;22.30;38.90;;;;;;5005364;28;20093;-44
2022/04/21 04:42:46;;;;;;;3.08;1.63;;;22.40;38.90;;;;;;5005919;28;20065;-45
2022/04/21 04:47:56;;;;;;;3.22;1.73;;;22.50;38.60;;;;;;5004552;28;20045;-44
2022/04/21 04:50:22;;;;;;;3.60;2.20;;;22.60;38.50;;;;;;5005006;28;20022;-45
2022/04/21 04:52:48;;;;;;;5.72;2.60;;;22.70;39.20;;;;;;5005449;28;20051;-45
2022/04/21 04:55:14;;;;;;;9.30;3.75;;;22.80;41.60;;;;;;5005011;28;20067;-45
2022/04/21 04:57:40;;;;;;;10.75;4.93;;;22.80;43.90;;;;;;5005032;28;20025;-45
2022/04/21 05:00:08;;;;;;;11.25;3.13;;;23.00;44.60;;;;;;5002998;28;20232;-46
2022/04/21 05:02:34;;;;;;;9.38;4.18;;;23.00;45.00;;;;;;5003027;28;20063;-45
2022/04/21 05:05:00;;;;;;;9.85;4.03;;;23.10;44.90;;;;;;5004463;28;20026;-44
2022/04/21 05:07:26;;;;;;;8.10;3.58;;;23.10;45.40;;;;;;4999560;28;20026;-45
2022/04/21 05:09:52;;;;;;;6.43;3.38;;;23.20;44.60;;;;;;5005460;28;20639;-46
2022/04/21 05:12:21;;;;;;;6.40;3.60;;;23.30;44.60;;;;;;5003857;28;20042;-45
2022/04/21 05:14:48;;;;;;;7.10;2.85;;;23.30;44.40;;;;;;5004958;28;20034;-45
2022/04/21 05:17:14;;;;;;;6.63;3.22;;;23.40;43.90;;;;;;5005588;28;20022;-50
2022/04/21 05:19:40;;;;;;;5.82;3.03;;;23.40;43.80;;;;;;5005362;28;20113;-45
2022/04/21 05:22:07;;;;;;;5.53;2.30;;;23.40;43.50;;;;;;5005184;28;20072;-44
2022/04/21 05:24:34;;;;;;;6.50;3.20;;;23.40;43.60;;;;;;5005685;28;20062;-45
2022/04/21 05:27:01;;;;;;;5.38;3.20;;;23.50;43.60;;;;;;5005094;28;20478;-45
2022/04/21 05:32:13;;;;;;;6.72;3.20;;;23.50;43.50;;;;;;5005149;28;20426;-45
2022/04/21 05:34:39;;;;;;;5.13;2.80;;;23.50;43.20;;;;;;4999510;28;20504;-46
2022/04/21 05:37:05;;;;;;;5.85;2.90;;;23.60;42.80;;;;;;4994711;28;20045;-45
2022/04/21 05:39:31;;;;;;;5.72;2.90;;;23.60;42.80;;;;;;5002507;28;20046;-42
2022/04/21 05:41:58;;;;;;;5.47;2.72;;;23.60;42.50;;;;;;5002049;28;20107;-42
2022/04/21 05:44:25;;;;;;;5.68;2.83;;;23.60;42.30;;;;;;5005317;28;20010;-42
2022/04/21 05:46:51;;;;;;;4.90;2.55;;;23.60;42.10;;;;;;5004459;28;20554;-42
2022/04/21 05:49:18;;;;;;;4.85;2.65;;;23.60;42.10;;;;;;5002051;28;20030;-41
2022/04/21 05:51:46;;;;;;;6.13;3.22;;;23.60;42.20;;;;;;5004426;28;20690;-41
2022/04/21 05:54:12;;;;;;;7.70;3.70;;;23.60;41.80;;;;;;5005739;28;20029;-41
2022/04/21 05:56:38;;;;;;;7.90;3.35;;;23.60;41.60;;;;;;4995930;28;20030;-40
2022/04/21 05:59:04;;;;;;;9.52;3.72;;;23.60;41.90;;;;;;5000549;28;20576;-42
2022/04/21 06:01:30;;;;;;;7.95;3.92;;;23.60;41.90;;;;;;5002306;28;20027;-41
2022/04/21 06:03:56;;;;;;;7.03;3.67;;;23.60;42.20;;;;;;4997566;28;20025;-41
2022/04/21 06:06:22;;;;;;;9.13;3.60;;;23.60;42.20;;;;;;5005426;28;20050;-42
2022/04/21 06:08:48;;;;;;;7.82;3.30;;;23.60;42.20;;;;;;5005174;28;20033;-42
2022/04/21 06:11:14;;;;;;;8.07;3.15;;;23.60;42.20;;;;;;5005346;28;20092;-41
2022/04/21 06:13:41;;;;;;;5.93;3.20;;;23.60;42.00;;;;;;5004434;28;20149;-41
2022/04/21 06:16:08;;;;;;;10.23;3.42;;;23.60;41.50;;;;;;5004124;28;20021;-41
2022/04/21 06:18:36;;;;;;;5.13;3.00;;;23.60;41.00;;;;;;5003499;28;20497;-41
2022/04/21 06:21:02;;;;;;;5.72;3.30;;;23.60;40.70;;;;;;5002705;28;20458;-41
2022/04/21 06:23:28;;;;;;;5.65;2.88;;;23.60;40.60;;;;;;5003690;28;20536;-41
2022/04/21 06:25:58;;;;;;;6.50;3.17;;;23.60;40.50;;;;;;5003955;28;20026;-42
2022/04/21 06:28:27;;;;;;;6.35;3.15;;;23.60;40.40;;;;;;5002175;28;20041;-40
2022/04/21 06:30:53;;;;;;;6.45;3.17;;;23.60;40.80;;;;;;5003966;28;20033;-41
2022/04/21 06:33:19;;;;;;;6.68;3.58;;;23.60;40.80;;;;;;5004154;28;20445;-40
2022/04/21 06:35:45;;;;;;;7.57;3.33;;;23.60;40.50;;;;;;5003861;28;20032;-42
2022/04/21 06:38:12;;;;;;;7.85;3.60;;;23.50;40.30;;;;;;4986098;28;20030;-41
2022/04/21 06:40:38;;;;;;;7.13;3.50;;;23.50;40.10;;;;;;5004544;28;20025;-41
2022/04/21 06:48:01;;;;;;;6.97;3.92;;;23.50;40.10;;;;;;5005139;28;20084;-41
2022/04/21 06:48:40;;;;;;;5.13;2.80;;;23.50;39.60;;;;;;5004499;28;20037;-41
2022/04/21 06:51:06;;;;;;;6.35;3.47;;;23.50;39.60;;;;;;5004624;28;20053;-41
2022/04/21 06:53:34;;;;;;;5.25;2.97;;;23.50;39.60;;;;;;5004942;28;20026;-41
2022/04/21 06:56:00;;;;;;;5.80;3.55;;;23.50;39.40;;;;;;5004843;28;20101;-41
2022/04/21 06:58:26;;;;;;;4.55;3.20;;;23.50;39.30;;;;;;5004139;28;20030;-41
2022/04/21 07:00:52;;;;;;;6.97;4.10;;;23.50;39.30;;;;;;5004348;28;20029;-41
2022/04/21 07:03:17;;;;;;;6.82;3.22;;;23.50;39.30;;;;;;5004527;28;20521;-41
2022/04/21 07:05:45;;;;;;;4.68;3.10;;;23.50;39.20;;;;;;5004241;28;20414;-41
2022/04/21 07:08:10;;;;;;;5.63;2.92;;;23.40;39.10;;;;;;5004608;28;20084;-41
2022/04/21 07:10:36;;;;;;;5.32;3.00;;;23.50;39.10;;;;;;5004580;28;20397;-41
2022/04/21 07:13:11;;;;;;;5.50;2.85;;;23.50;39.10;;;;;;5004725;28;20053;-41
2022/04/21 07:15:40;;;;;;;5.32;2.92;;;23.50;39.00;;;;;;5004361;28;20562;-41
2022/04/21 07:18:06;;;;;;;6.60;3.60;;;23.50;38.90;;;;;;5004369;28;20033;-41
2022/04/21 07:20:32;;;;;;;5.05;3.13;;;23.50;38.90;;;;;;5004130;28;20033;-41
2022/04/21 07:22:57;;;;;;;4.35;3.00;;;23.50;38.90;;;;;;5004750;28;20025;-41
2022/04/21 07:25:23;;;;;;;4.80;2.90;;;23.50;38.90;;;;;;5008405;28;20101;-41
2022/04/21 07:27:49;;;;;;;5.35;2.70;;;23.50;38.80;;;;;;4990688;28;20026;-41
2022/04/21 07:30:15;;;;;;;5.35;3.10;;;23.50;38.80;;;;;;5004741;28;20425;-41
2022/04/21 07:32:43;;;;;;;4.65;2.70;;;23.50;38.80;;;;;;4988700;28;20086;-41
2022/04/21 07:35:09;;;;;;;5.25;2.78;;;23.50;38.70;;;;;;4990214;28;20052;-41
2022/04/21 07:37:37;;;;;;;4.95;2.85;;;23.50;38.70;;;;;;5007915;28;20037;-41
2022/04/21 07:40:04;;;;;;;4.25;2.70;;;23.50;38.70;;;;;;5008069;28;20108;-41
2022/04/21 07:42:30;;;;;;;4.72;2.75;;;23.50;38.70;;;;;;5007761;28;20033;-41
2022/04/21 07:45:01;;;;;;;4.32;2.88;;;23.50;38.60;;;;;;5008075;28;20030;-41
2022/04/21 07:47:27;;;;;;;4.00;2.35;;;23.50;38.50;;;;;;5008072;28;20116;-41
2022/04/21 07:49:53;;;;;;;5.28;2.92;;;23.50;38.60;;;;;;5007200;28;20053;-40
2022/04/21 07:55:24;;;;;;;4.43;2.58;;;23.50;38.50;;;;;;5008082;28;20037;-41
2022/04/21 07:57:53;;;;;;;5.20;2.72;;;23.50;38.50;;;;;;5008180;28;20026;-41
2022/04/21 08:00:20;;;;;;;4.25;2.55;;;23.50;38.50;;;;;;5007677;28;20111;-41
2022/04/21 08:02:46;;;;;;;4.25;2.30;;;23.50;38.40;;;;;;5007975;28;20283;-40
2022/04/21 08:05:15;;;;;;;5.32;2.97;;;23.50;38.40;;;;;;5008033;28;20037;-41
2022/04/21 08:07:40;;;;;;;5.28;2.60;;;23.50;38.50;;;;;;5007380;28;20570;-41
2022/04/21 08:10:10;;;;;;;6.05;2.80;;;23.50;38.40;;;;;;5007534;28;20038;-42
2022/04/21 08:12:44;;;;;;;5.00;2.08;;;23.50;38.40;;;;;;5007964;28;20121;-40
2022/04/21 08:15:15;;;;;;;5.35;2.75;;;23.50;38.50;;;;;;5008015;28;20041;-43
2022/04/21 08:17:41;;;;;;;5.05;3.22;;;23.40;38.30;;;;;;4990009;28;20057;-42
2022/04/21 08:20:08;;;;;;;4.55;2.90;;;23.40;38.30;;;;;;5007057;28;20034;-43
2022/04/21 08:22:35;;;;;;;3.83;2.20;;;23.40;38.30;;;;;;5007240;28;20026;-43
2022/04/21 08:33:15;;;;;;;4.43;2.65;;;23.40;38.30;;;;;;5006722;28;20034;-43
2022/04/21 08:35:41;;;;;;;4.05;2.67;;;23.30;38.30;;;;;;5005847;28;20033;-43
2022/04/21 08:38:10;;;;;;;3.92;2.60;;;23.40;38.30;;;;;;5007296;28;20498;-43
2022/04/21 08:40:49;;;;;;;4.28;2.63;;;23.40;38.40;;;;;;5006998;28;20037;-43
2022/04/21 08:43:15;;;;;;;4.57;2.50;;;23.40;38.40;;;;;;5006842;28;20413;-43
2022/04/21 08:45:46;;;;;;;3.47;2.30;;;23.40;38.30;;;;;;4987950;28;20025;-43
2022/04/21 08:48:14;;;;;;;4.75;2.65;;;23.40;38.30;;;;;;4990129;28;20026;-43
2022/04/21 08:50:40;;;;;;;4.85;2.50;;;23.40;38.30;;;;;;5006556;28;20116;-43
2022/04/21 08:53:07;;;;;;;4.53;2.38;;;23.40;38.30;;;;;;5006906;28;20033;-43
2022/04/21 08:55:33;;;;;;;4.50;2.60;;;23.40;38.20;;;;;;5006166;28;20052;-43
2022/04/21 08:58:03;;;;;;;4.78;2.80;;;23.50;38.30;;;;;;5006058;28;20433;-43
2022/04/21 09:00:31;;;;;;;4.70;2.53;;;23.50;38.30;;;;;;4988917;28;20044;-43
2022/04/21 09:02:58;;;;;;;3.40;2.40;;;23.50;38.30;;;;;;5006368;28;20030;-43
2022/04/21 09:05:27;;;;;;;3.63;2.17;;;23.50;38.30;;;;;;5006615;28;20105;-43
2022/04/21 09:07:53;;;;;;;3.95;2.22;;;23.50;38.20;;;;;;5006987;28;20049;-43
2022/04/21 09:10:20;;;;;;;3.60;1.92;;;23.50;38.10;;;;;;5006004;28;20723;-44
2022/04/21 09:12:48;;;;;;;4.55;2.10;;;23.50;38.20;;;;;;5006192;28;20053;-43
2022/04/21 09:15:16;;;;;;;4.93;2.78;;;23.50;38.10;;;;;;5006643;28;20120;-43
2022/04/21 09:17:52;;;;;;;4.15;2.80;;;23.50;38.10;;;;;;5005994;28;20161;-42
2022/04/21 09:20:20;;;;;;;5.13;2.70;;;23.50;38.10;;;;;;5005993;28;20037;-43
2022/04/21 09:22:54;;;;;;;4.18;2.38;;;23.50;38.10;;;;;;5006330;28;20030;-43
2022/04/21 09:25:22;;;;;;;4.47;2.40;;;23.50;38.00;;;;;;5006213;28;20106;-43
2022/04/21 09:27:49;;;;;;;5.05;2.35;;;23.50;38.00;;;;;;5006270;28;20512;-43
2022/04/21 09:30:16;;;;;;;4.15;2.67;;;23.50;38.00;;;;;;5005937;28;20066;-43
2022/04/21 09:32:52;;;;;;;3.85;2.35;;;23.50;38.00;;;;;;4997515;28;20663;-43
2022/04/21 09:35:19;;;;;;;4.35;2.53;;;23.50;38.10;;;;;;5004419;28;20085;-43
2022/04/21 09:37:50;;;;;;;3.35;2.15;;;23.50;38.00;;;;;;5005734;28;20549;-43
2022/04/21 09:40:20;;;;;;;3.75;2.35;;;23.50;38.00;;;;;;5006040;28;20100;-43
2022/04/21 09:42:58;;;;;;;3.65;2.50;;;23.50;38.10;;;;;;5005766;28;20022;-47
2022/04/21 09:48:21;;;;;;;3.70;2.25;;;23.50;38.00;;;;;;5005555;28;20042;-43
2022/04/21 09:50:51;;;;;;;4.43;2.92;;;23.50;38.00;;;;;;5005448;28;20030;-43
2022/04/21 09:53:23;;;;;;;3.92;2.35;;;23.50;38.00;;;;;;5005723;28;20088;-44
2022/04/21 09:55:50;;;;;;;4.00;2.50;;;23.50;38.00;;;;;;5005924;28;20041;-42
2022/04/21 09:58:16;;;;;;;4.57;2.55;;;23.50;38.00;;;;;;5004651;28;20707;-43
2022/04/21 10:00:42;;;;;;;3.50;2.22;;;23.50;38.00;;;;;;5005259;28;20454;-43
2022/04/21 10:03:10;;;;;;;3.85;2.20;;;23.50;38.00;;;;;;5005107;28;20026;-43
2022/04/21 10:05:37;;;;;;;3.17;2.10;;;23.50;37.90;;;;;;5005420;28;20402;-42
2022/04/21 10:08:05;;;;;;;3.65;2.42;;;23.50;37.90;;;;;;5005723;28;20057;-43
2022/04/21 10:10:32;;;;;;;3.70;1.98;;;23.50;37.90;;;;;;5005214;28;20033;-43
2022/04/21 10:13:00;;;;;;;3.25;1.95;;;23.50;37.80;;;;;;5005305;28;20029;-42
2022/04/21 10:15:27;;;;;;;4.13;2.20;;;23.40;37.90;;;;;;5005390;28;20022;-43
2022/04/21 10:17:53;;;;;;;3.90;2.53;;;23.40;37.90;;;;;;5005120;28;20045;-43
2022/04/21 10:20:23;;;;;;;4.25;2.50;;;23.40;37.80;;;;;;5004963;28;20034;-43
2022/04/21 10:22:51;;;;;;;4.28;2.03;;;23.40;37.90;;;;;;5005439;28;20182;-43
2022/04/21 10:25:19;;;;;;;3.40;2.17;;;23.40;38.00;;;;;;5004896;28;20547;-43
2022/04/21 10:27:47;;;;;;;3.72;2.17;;;23.40;37.90;;;;;;5005118;28;20091;-43
2022/04/21 10:30:21;;;;;;;3.50;2.17;;;23.50;38.10;;;;;;5004999;28;20034;-43
2022/04/21 10:32:52;;;;;;;3.22;2.13;;;23.50;38.00;;;;;;5003194;28;20053;-43
2022/04/21 10:35:28;;;;;;;3.65;2.15;;;23.50;38.00;;;;;;4985213;28;20494;-43
2022/04/21 10:38:23;;;;;;;4.43;2.45;;;23.50;38.00;;;;;;5004809;28;20049;-43
2022/04/21 10:41:07;;;;;;;3.33;2.13;;;23.50;38.00;;;;;;5004711;28;20029;-43
2022/04/21 10:43:48;;;;;;;4.15;2.15;;;23.50;38.00;;;;;;5004957;28;20092;-43
2022/04/21 10:46:22;;;;;;;3.63;2.13;;;23.50;38.10;;;;;;5004819;28;20042;-43
2022/04/21 10:48:48;;;;;;;4.95;1.92;;;23.50;38.00;;;;;;5005194;28;20029;-44
2022/04/21 10:57:29;;;;;;;3.72;2.17;;;23.60;38.00;;;;;;4924426;29;20173;-43
2022/04/21 11:00:02;;;;;;;4.95;2.58;;;23.60;38.00;;;;;;4975004;28;20265;-43
2022/04/21 11:02:45;;;;;;;3.38;2.10;;;23.60;38.00;;;;;;4990022;28;20031;-43
2022/04/21 11:05:23;;;;;;;3.05;1.88;;;23.60;38.00;;;;;;5008777;28;20037;-43
2022/04/21 11:07:56;;;;;;;3.90;2.20;;;23.60;38.00;;;;;;5008720;28;20136;-43
2022/04/21 11:10:48;;;;;;;4.43;2.30;;;23.60;37.90;;;;;;5008572;28;20125;-43
2022/04/21 11:13:18;;;;;;;4.93;2.58;;;23.60;37.90;;;;;;5004972;28;20115;-43
2022/04/21 11:15:49;;;;;;;3.50;2.08;;;23.60;37.90;;;;;;5008696;28;20079;-44
2022/04/21 11:18:27;;;;;;;2.80;1.70;;;23.60;37.90;;;;;;5008467;28;20029;-43
2022/04/21 11:21:23;;;;;;;3.30;2.05;;;23.60;37.80;;;;;;4990530;28;20315;-43
2022/04/21 11:23:49;;;;;;;5.10;2.28;;;23.60;37.90;;;;;;5008670;28;20444;-43
2022/04/21 11:26:15;;;;;;;3.55;2.38;;;23.60;37.80;;;;;;5008886;28;20268;-43
2022/04/21 11:28:45;;;;;;;3.40;2.10;;;23.70;37.90;;;;;;5008384;28;20026;-43
2022/04/21 11:31:12;;;;;;;3.88;2.15;;;23.60;37.80;;;;;;4990424;28;20116;-43
2022/04/21 11:33:44;;;;;;;3.70;2.08;;;23.70;37.90;;;;;;5006543;28;20065;-43
2022/04/21 11:36:12;;;;;;;3.90;2.27;;;23.60;37.70;;;;;;4988574;28;20026;-43
2022/04/21 11:38:42;;;;;;;4.85;2.30;;;23.60;37.70;;;;;;4988587;28;20027;-43
2022/04/21 11:41:10;;;;;;;4.28;2.47;;;23.60;37.60;;;;;;4988583;28;20529;-43
2022/04/21 11:43:37;;;;;;;3.08;1.60;;;23.60;37.60;;;;;;4988447;28;20058;-43
2022/04/21 11:46:05;;;;;;;3.40;1.90;;;23.60;37.60;;;;;;4988887;28;20490;-43
2022/04/21 11:48:38;;;;;;;4.00;2.00;;;23.60;37.50;;;;;;4989968;28;20034;-43
2022/04/21 11:51:04;;;;;;;4.05;2.30;;;23.70;37.60;;;;;;5007517;28;20037;-42
2022/04/21 11:53:40;;;;;;;3.30;1.90;;;23.60;37.60;;;;;;5008133;28;20409;-41
2022/04/21 11:56:08;;;;;;;4.03;1.95;;;23.70;37.70;;;;;;5008131;28;20038;-43
2022/04/21 11:58:38;;;;;;;3.28;1.98;;;23.70;37.80;;;;;;5007795;28;20108;-43
2022/04/21 12:06:39;;;;;;;4.55;2.38;;;23.70;37.70;;;;;;5007734;28;20021;-43
2022/04/21 12:09:14;;;;;;;3.28;2.13;;;23.70;37.70;;;;;;5007606;28;20032;-43
2022/04/21 12:11:40;;;;;;;4.07;2.45;;;23.70;37.70;;;;;;5007072;28;20046;-44
2022/04/21 12:14:06;;;;;;;3.53;1.95;;;23.80;37.60;;;;;;5007802;28;20141;-43
2022/04/21 12:16:39;;;;;;;3.35;1.95;;;23.80;37.60;;;;;;4990071;28;20385;-43
2022/04/21 12:19:15;;;;;;;;;;;23.80;37.50;;;;;;5007837;28;20042;-43
2022/04/21 12:21:42;;;;;;;3.92;1.77;;;23.80;37.50;;;;;;5006670;28;20012;-43
2022/04/21 12:24:14;;;;;;;3.60;2.08;;;23.90;37.40;;;;;;5007250;28;20034;-44
2022/04/21 12:26:51;;;;;;;3.65;2.00;;;23.90;37.30;;;;;;5007553;28;20300;-43
2022/04/21 12:29:17;;;;;;;3.50;2.28;;;23.90;37.30;;;;;;5007434;28;20033;-43
2022/04/21 12:31:47;;;;;;;3.55;2.28;;;24.00;37.20;;;;;;5006652;28;20022;-43
2022/04/21 12:34:19;;;;;;;3.20;2.03;;;24.00;37.10;;;;;;5004623;28;20125;-43
2022/04/21 12:36:52;;;;;;;3.27;2.00;;;24.00;37.10;;;;;;4987637;28;20030;-43
2022/04/21 12:39:19;;;;;;;3.08;1.90;;;24.10;37.10;;;;;;4986545;28;20491;-42
2022/04/21 12:41:45;;;;;;;4.28;1.95;;;24.10;37.00;;;;;;4985321;28;20124;-43
2022/04/21 12:44:11;;;;;;;3.95;2.13;;;24.10;37.00;;;;;;4986069;28;20058;-43
2022/04/21 12:46:37;;;;;;;4.13;2.30;;;24.10;37.00;;;;;;4986279;28;20026;-43
2022/04/21 12:49:02;;;;;;;2.92;1.85;;;24.20;36.90;;;;;;4991234;28;20029;-43
2022/04/21 12:51:28;;;;;;;2.90;1.77;;;24.20;36.90;;;;;;5005238;28;20186;-43
2022/04/21 12:53:57;;;;;;;4.30;2.78;;;24.20;36.80;;;;;;5006731;28;20080;-43
2022/04/21 12:56:37;;;;;;;2.88;1.80;;;24.20;36.70;;;;;;5006514;28;20109;-43
2022/04/21 12:59:03;;;;;;;3.38;1.77;;;24.20;36.80;;;;;;5006584;28;20030;-44
2022/04/21 13:01:29;;;;;;;3.60;1.88;;;24.20;36.70;;;;;;5006383;28;20464;-44
2022/04/21 13:03:58;;;;;;;3.70;1.67;;;24.20;36.60;;;;;;5006482;28;20014;-43
2022/04/21 13:06:29;;;;;;;3.88;2.03;;;24.30;36.70;;;;;;5006513;28;20026;-43
2022/04/21 13:08:56;;;;;;;2.92;1.67;;;24.30;36.60;;;;;;5006553;28;20026;-44
2022/04/21 13:11:22;;;;;;;3.03;1.70;;;24.30;36.60;;;;;;5006078;28;20036;-43
2022/04/21 13:13:50;;;;;;;3.22;1.80;;;24.30;36.60;;;;;;5006431;28;20121;-43
2022/04/21 13:16:17;;;;;;;3.42;1.80;;;24.30;36.50;;;;;;5006328;28;20026;-43
2022/04/21 13:18:43;;;;;;;3.45;1.73;;;24.30;36.60;;;;;;5006308;28;20036;-43
2022/04/21 13:23:52;;;;;;;3.70;1.83;;;24.30;36.60;;;;;;5006458;28;20033;-43
2022/04/21 13:26:20;;;;;;;4.25;1.77;;;24.30;36.40;;;;;;5006160;28;20030;-44
2022/04/21 13:28:46;;;;;;;2.92;1.67;;;24.30;36.50;;;;;;5006095;28;20022;-43
2022/04/21 13:33:56;;;;;;;3.17;1.83;;;24.30;36.40;;;;;;5005851;28;20037;-43
2022/04/21 13:36:22;;;;;;;3.17;2.10;;;24.40;36.30;;;;;;4995266;28;20034;-44
2022/04/21 13:38:47;;;;;;;3.00;1.70;;;24.40;36.30;;;;;;4985369;28;20034;-43
2022/04/21 13:41:13;;;;;;;3.67;2.00;;;24.40;36.30;;;;;;4985338;28;20026;-43
2022/04/21 13:43:39;;;;;;;2.95;1.60;;;24.40;36.30;;;;;;4999358;28;20030;-44
2022/04/21 13:46:05;;;;;;;2.50;1.40;;;24.40;36.30;;;;;;5005182;28;20492;-43
2022/04/21 13:48:31;;;;;;;2.22;1.30;;;24.40;36.20;;;;;;5005195;28;20441;-46
2022/04/21 13:50:57;;;;;;;2.65;1.50;;;24.40;36.30;;;;;;5005096;28;20058;-44